Astoria Regional Airport
KAST : now visible

Airfield :











YOU CAN JOIN US ON...

 
LOGIN :

Register | Disclaimer

   EN    FR    IT 

 









Legend :    VFR   Marginal VFR   IFR   Intensive IFR   Very Intensive IFR
Visi :
Ceiling :
>= 8 km
>= 3000ft
5 to 8 km
1000 to 3000 ft
1500m to 5 km
500 to 1000 ft
800 to 1500m
200 to 500 ft
< 800m
< 200 ft
Symbols :   Thunderstorms  Fog  Heavy snow  Heavy precipitations  Wind > 20 kt






- Airport Elevation : 15 ft


KAST - Astoria Regional

CURRENT METAR :
  • 291655Z AUTO 32012KT 10SM CLR 16/11 A2999 RMK AO2 SLP154 T01560106

EXPIRED METARs :
  • 291555Z AUTO 32008KT 9SM CLR 14/10 A3000 RMK AO2 SLP158 T01440100
  • 291455Z AUTO 35007KT 9SM SCT017 13/11 A3001 RMK AO2 SLP160 T01330106 50001
  • 291437Z AUTO 32010KT 8SM OVC016 13/11 A3001 RMK AO2 T01330106
  • 291418Z AUTO 31007KT 8SM BKN013 OVC019 13/11 A3001 RMK AO2 T01330106

TAF KAST
Valid from the 29 at 15:00 until the 30 at 12:00 UTC


291505Z 2915/3012 33010KT P6SM SCT015
TEMPO 2915/2916 BKN015
FM292000 32014KT P6SM SCT030
FM300000 31015G25KT P6SM SCT040
FM300400 32010G20KT P6SM OVC200
KZSE FIR / North America



MET'MAP, your aeronautical weather chart ! - Copyright ORBIFLY December 2007 - Disclaimer

ORBIFLY MET'MAP TEAM :

Programming & Development : Alexandra Zaïnal
Concept & original design : Baudouin d'Aumeries
Assistance for programming : Marc-Olivier Méhu
Technical & hardware support : Manuel Goepfert

Contact : metmap@orbifly.com




SOURCES & CREDITS :

   NOAA       Earth
Advisory